createdAt,value
2022-12-01T00:02:12.278Z,34.38
2022-12-01T00:05:15.474Z,34.89
2022-12-01T00:08:19.748Z,34.67
2022-12-01T00:11:21.838Z,34.65
2022-12-01T00:14:26.555Z,34.41
2022-12-01T00:17:31.023Z,34.44
2022-12-01T00:20:35.085Z,34.94
2022-12-01T00:23:38.153Z,34.87
2022-12-01T00:26:41.282Z,34.80
2022-12-01T00:29:47.138Z,34.98
2022-12-01T00:32:50.596Z,34.20
2022-12-01T00:35:59.625Z,34.57
2022-12-01T00:39:02.669Z,34.60
2022-12-01T00:42:11.636Z,34.57
2022-12-01T00:45:17.616Z,34.77
2022-12-01T00:48:20.684Z,34.73
2022-12-01T00:51:24.585Z,34.50
2022-12-01T00:54:27.646Z,34.66
2022-12-01T00:57:30.683Z,34.39
2022-12-01T01:00:38.718Z,34.50
2022-12-01T01:03:41.819Z,34.75
2022-12-01T01:06:45.042Z,34.47
2022-12-01T01:09:48.472Z,34.48
2022-12-01T01:12:51.602Z,34.71
2022-12-01T01:16:00.916Z,34.43
2022-12-01T01:19:03.991Z,34.32
2022-12-01T01:22:07.121Z,34.12
2022-12-01T01:25:10.536Z,34.45
2022-12-01T01:28:13.601Z,34.45
2022-12-01T01:31:20.714Z,34.53
2022-12-01T01:34:23.818Z,34.08
2022-12-01T01:37:27.006Z,34.13
2022-12-01T01:40:30.162Z,34.37
2022-12-01T01:43:54.980Z,34.56
2022-12-01T01:46:59.709Z,34.53
2022-12-01T01:50:06.681Z,34.55
2022-12-01T01:53:13.800Z,34.57
2022-12-01T01:56:16.825Z,34.56
2022-12-01T01:59:25.489Z,34.25
2022-12-01T02:02:29.991Z,34.14
2022-12-01T02:05:35.604Z,34.09
2022-12-01T02:08:39.112Z,34.18
2022-12-01T02:12:07.201Z,34.34
2022-12-01T02:15:24.510Z,34.29
2022-12-01T02:18:38.741Z,34.08
2022-12-01T02:22:00.251Z,34.08
2022-12-01T02:25:25.035Z,34.51
2022-12-01T02:28:48.019Z,34.46
2022-12-01T02:32:00.474Z,34.02
2022-12-01T02:35:14.580Z,34.18
2022-12-01T02:38:25.970Z,34.52
2022-12-01T02:41:34.139Z,33.96
2022-12-01T02:44:43.699Z,34.10
2022-12-01T02:47:50.442Z,34.05
2022-12-01T02:50:56.751Z,34.46
2022-12-01T02:54:01.772Z,34.34
2022-12-01T02:57:05.253Z,33.87
2022-12-01T03:00:13.568Z,34.09
2022-12-01T03:03:34.332Z,33.93
2022-12-01T03:06:49.335Z,34.46
2022-12-01T03:10:05.285Z,34.02
2022-12-01T03:13:18.181Z,34.51
2022-12-01T03:16:29.060Z,34.29
2022-12-01T03:19:38.614Z,33.79
2022-12-01T03:22:45.694Z,34.35
2022-12-01T03:25:53.056Z,34.33
2022-12-01T03:29:04.562Z,34.47
2022-12-01T03:32:11.455Z,34.39
2022-12-01T03:35:20.918Z,34.25
2022-12-01T03:38:27.102Z,34.14
2022-12-01T03:41:45.193Z,33.75
2022-12-01T03:44:51.763Z,34.17
2022-12-01T03:47:55.036Z,33.99
2022-12-01T03:51:06.886Z,33.92
2022-12-01T03:54:16.504Z,34.41
2022-12-01T03:57:26.617Z,34.05
2022-12-01T04:00:31.369Z,33.88
2022-12-01T04:03:35.220Z,34.37
2022-12-01T04:06:41.833Z,33.92
2022-12-01T04:09:44.932Z,34.23
2022-12-01T04:12:48.005Z,34.09
2022-12-01T04:15:51.679Z,34.09
2022-12-01T04:18:54.777Z,34.02
2022-12-01T04:21:59.314Z,33.95
2022-12-01T04:25:02.427Z,34.76
2022-12-01T04:28:05.771Z,34.70
2022-12-01T04:31:08.813Z,34.42
2022-12-01T04:34:12.289Z,34.66
2022-12-01T04:37:17.144Z,34.63
2022-12-01T04:40:21.713Z,34.33
2022-12-01T04:43:24.688Z,34.89
2022-12-01T04:46:27.950Z,34.32
2022-12-01T04:49:31.304Z,34.82
2022-12-01T04:52:38.099Z,34.29
2022-12-01T04:55:41.152Z,33.46
2022-12-01T04:58:44.517Z,34.41
2022-12-01T05:01:48.429Z,34.34
2022-12-01T05:04:51.541Z,33.32
2022-12-01T05:07:56.202Z,35.13
2022-12-01T05:10:59.310Z,34.10
2022-12-01T05:14:02.827Z,33.31
2022-12-01T05:17:05.910Z,33.42
2022-12-01T05:20:37.456Z,33.38
2022-12-01T05:23:42.051Z,33.68
2022-12-01T05:26:45.960Z,33.62
2022-12-01T05:29:49.240Z,33.96
2022-12-01T05:32:52.525Z,33.49
2022-12-01T05:35:55.999Z,33.40
2022-12-01T05:39:00.466Z,33.66
2022-12-01T05:42:03.442Z,33.70
2022-12-01T05:45:07.412Z,33.37
2022-12-01T05:48:10.553Z,33.45
2022-12-01T05:51:15.431Z,33.93
2022-12-01T05:54:19.863Z,33.64
2022-12-01T05:57:22.915Z,33.77
2022-12-01T06:00:25.939Z,33.72
2022-12-01T06:03:29.030Z,33.44
2022-12-01T06:06:32.132Z,34.01
2022-12-01T06:09:36.604Z,33.96
2022-12-01T06:12:39.994Z,33.54
2022-12-01T06:15:43.091Z,33.85
2022-12-01T06:18:46.083Z,33.95
2022-12-01T06:21:49.162Z,33.66
2022-12-01T06:24:53.612Z,33.97
2022-12-01T06:27:57.734Z,33.89
2022-12-01T06:31:03.467Z,34.17
2022-12-01T06:34:07.048Z,34.28
2022-12-01T06:37:10.085Z,33.59
2022-12-01T06:40:15.187Z,33.81
2022-12-01T06:43:18.230Z,34.02
2022-12-01T06:46:21.224Z,33.80
2022-12-01T06:49:24.415Z,33.93
2022-12-01T06:52:27.432Z,33.12
2022-12-01T06:55:31.855Z,33.33
2022-12-01T06:58:35.762Z,33.50
2022-12-01T07:01:39.374Z,33.01
2022-12-01T07:04:42.634Z,32.92
2022-12-01T07:07:45.805Z,33.37
2022-12-01T07:10:57.950Z,32.85
2022-12-01T07:14:01.022Z,33.39
2022-12-01T07:17:04.162Z,32.81
2022-12-01T07:20:10.261Z,32.96
2022-12-01T07:23:13.308Z,32.67
2022-12-01T07:26:19.074Z,32.96
2022-12-01T07:29:22.179Z,33.22
2022-12-01T07:32:25.477Z,32.82
2022-12-01T07:35:28.556Z,32.62
2022-12-01T07:38:32.223Z,33.17
2022-12-01T07:41:37.324Z,32.72
2022-12-01T07:44:40.347Z,33.13
2022-12-01T07:47:44.639Z,32.35
2022-12-01T07:50:47.622Z,32.42
2022-12-01T07:53:52.564Z,32.52
2022-12-01T07:56:56.982Z,32.83
2022-12-01T07:59:59.990Z,32.81
2022-12-01T08:03:03.115Z,32.32
2022-12-01T08:06:07.441Z,32.47
2022-12-01T08:09:10.613Z,32.41
2022-12-01T08:12:15.044Z,32.81
2022-12-01T08:15:18.322Z,32.48
2022-12-01T08:18:21.461Z,32.47
2022-12-01T08:21:25.336Z,32.65
2022-12-01T08:24:28.385Z,32.77
2022-12-01T08:27:32.834Z,33.33
2022-12-01T08:30:35.951Z,33.53
2022-12-01T08:33:39.039Z,33.74
2022-12-01T08:36:42.067Z,33.98
2022-12-01T08:39:45.144Z,33.48
2022-12-01T08:42:49.583Z,33.47
2022-12-01T08:45:52.668Z,33.73
2022-12-01T08:48:57.849Z,33.65
2022-12-01T08:52:01.206Z,33.69
2022-12-01T08:55:05.286Z,33.81
2022-12-01T08:58:09.751Z,33.83
2022-12-01T09:01:15.262Z,33.39
2022-12-01T09:04:19.236Z,33.56
2022-12-01T09:07:26.407Z,33.74
2022-12-01T09:10:30.001Z,33.59
2022-12-01T09:13:35.804Z,33.56
2022-12-01T09:16:38.942Z,33.89
2022-12-01T09:19:42.157Z,33.70
2022-12-01T09:22:45.195Z,33.49
2022-12-01T09:25:50.919Z,33.83
2022-12-01T09:28:57.783Z,33.52
2022-12-01T09:32:01.609Z,34.21
2022-12-01T09:35:04.863Z,34.22
2022-12-01T09:38:07.921Z,34.23
2022-12-01T09:41:18.300Z,34.11
2022-12-01T09:44:33.589Z,34.07
2022-12-01T09:47:38.769Z,33.78
2022-12-01T09:50:42.073Z,34.18
2022-12-01T09:53:46.216Z,33.91
2022-12-01T09:56:53.525Z,33.84
2022-12-01T09:59:59.309Z,33.62
2022-12-01T10:03:08.879Z,33.41
2022-12-01T10:06:32.275Z,33.20
2022-12-01T10:09:41.384Z,33.20
2022-12-01T10:12:48.146Z,33.19
2022-12-01T10:15:59.105Z,33.27
2022-12-01T10:19:10.025Z,33.00
2022-12-01T10:22:37.090Z,33.27
2022-12-01T10:25:49.004Z,32.87
2022-12-01T10:29:03.482Z,32.76
2022-12-01T10:32:18.683Z,32.94
2022-12-01T10:35:24.272Z,33.29
2022-12-01T10:38:30.504Z,33.35
2022-12-01T10:41:36.248Z,33.62
2022-12-01T10:44:40.273Z,33.05
2022-12-01T10:48:15.399Z,33.61
2022-12-01T10:51:20.632Z,33.40
2022-12-01T10:54:28.134Z,33.06
2022-12-01T10:57:38.360Z,33.22
2022-12-01T11:00:59.678Z,33.12
2022-12-01T11:04:08.571Z,32.95
2022-12-01T11:07:17.769Z,33.25
2022-12-01T11:10:24.258Z,33.27
2022-12-01T11:13:30.615Z,33.28
2022-12-01T11:16:40.429Z,33.31
2022-12-01T11:19:45.005Z,33.26
2022-12-01T11:22:48.520Z,33.23
2022-12-01T11:26:00.292Z,32.78
2022-12-01T11:29:06.073Z,32.69
2022-12-01T11:32:18.658Z,32.64
2022-12-01T11:35:27.108Z,33.09
2022-12-01T11:38:35.070Z,32.80
2022-12-01T11:41:42.732Z,32.55
2022-12-01T11:44:52.177Z,32.53
2022-12-01T11:48:12.698Z,32.55
2022-12-01T11:51:32.515Z,32.81
2022-12-01T11:54:39.707Z,32.87
2022-12-01T11:57:46.676Z,32.57
2022-12-01T12:00:58.288Z,32.47
2022-12-01T12:04:18.569Z,32.47
2022-12-01T12:07:32.615Z,32.63
2022-12-01T12:10:47.665Z,32.96
2022-12-01T12:14:09.149Z,32.62
2022-12-01T12:17:32.290Z,32.37
2022-12-01T12:20:48.097Z,32.80
2022-12-01T12:24:23.648Z,32.33
2022-12-01T12:27:34.970Z,32.70
2022-12-01T12:30:47.851Z,32.34
2022-12-01T12:34:29.200Z,32.93
2022-12-01T12:37:43.010Z,32.25
2022-12-01T12:40:56.098Z,32.76
2022-12-01T12:44:12.173Z,32.88
2022-12-01T12:47:39.974Z,32.30
2022-12-01T12:50:48.446Z,32.51
2022-12-01T12:53:58.198Z,32.64
2022-12-01T12:57:07.263Z,32.17
2022-12-01T13:00:17.199Z,32.87
2022-12-01T13:03:30.636Z,32.36
2022-12-01T13:06:43.265Z,32.40
2022-12-01T13:09:52.441Z,32.76
2022-12-01T13:13:01.905Z,32.20
2022-12-01T13:16:08.211Z,32.58
2022-12-01T13:19:15.562Z,32.36
2022-12-01T13:22:31.106Z,32.54
2022-12-01T13:25:39.635Z,32.35
2022-12-01T13:28:48.822Z,32.79
2022-12-01T13:31:53.871Z,32.41
2022-12-01T13:34:57.906Z,32.32
2022-12-01T13:38:25.043Z,32.66
2022-12-01T13:41:30.887Z,32.28
2022-12-01T13:44:43.117Z,32.62
2022-12-01T13:47:52.415Z,32.11
2022-12-01T13:51:01.216Z,32.22
2022-12-01T13:54:07.237Z,32.20
2022-12-01T13:57:15.079Z,32.36
2022-12-01T14:00:25.978Z,32.57
2022-12-01T14:03:41.679Z,32.60
2022-12-01T14:06:49.613Z,32.65
2022-12-01T14:09:54.649Z,32.51
2022-12-01T14:13:02.823Z,32.35
2022-12-01T14:16:08.004Z,32.18
2022-12-01T14:19:34.231Z,32.25
2022-12-01T14:22:40.679Z,32.10
2022-12-01T14:25:57.230Z,32.51
2022-12-01T14:29:24.826Z,32.19
2022-12-01T14:32:29.291Z,32.04
2022-12-01T14:35:33.522Z,32.35
2022-12-01T14:38:36.675Z,31.87
2022-12-01T14:41:44.909Z,32.36
2022-12-01T14:44:52.956Z,32.01
2022-12-01T14:48:04.089Z,32.02
2022-12-01T14:51:18.163Z,32.13
2022-12-01T14:54:27.629Z,32.37
2022-12-01T14:57:34.499Z,32.06
2022-12-01T15:00:39.456Z,32.23
2022-12-01T15:03:48.110Z,31.90
2022-12-01T15:06:56.434Z,32.14
2022-12-01T15:10:02.172Z,31.80
2022-12-01T15:13:14.280Z,31.67
2022-12-01T15:16:19.762Z,31.86
2022-12-01T15:19:44.000Z,31.79
2022-12-01T15:22:47.174Z,32.25
2022-12-01T15:25:50.279Z,32.03
2022-12-01T15:29:06.127Z,31.55
2022-12-01T15:32:15.572Z,31.73
2022-12-01T15:35:22.273Z,32.18
2022-12-01T15:38:28.386Z,32.15
2022-12-01T15:41:31.693Z,31.56
2022-12-01T15:44:37.472Z,32.01
2022-12-01T15:47:49.709Z,31.55
2022-12-01T15:51:15.702Z,31.67
2022-12-01T15:54:22.376Z,32.08
2022-12-01T15:57:25.823Z,31.92
2022-12-01T16:00:29.185Z,32.01
2022-12-01T16:03:33.358Z,32.15
2022-12-01T16:06:39.981Z,31.52
2022-12-01T16:09:44.929Z,31.79
2022-12-01T16:12:48.000Z,31.68
2022-12-01T16:15:51.035Z,31.84
2022-12-01T16:18:56.977Z,32.03
2022-12-01T16:22:06.263Z,31.47
2022-12-01T16:25:18.409Z,31.75
2022-12-01T16:28:23.824Z,31.42
2022-12-01T16:31:27.786Z,31.90
2022-12-01T16:34:45.971Z,32.29
2022-12-01T16:37:51.077Z,32.35
2022-12-01T16:40:57.234Z,32.91
2022-12-01T16:44:26.956Z,32.87
2022-12-01T16:47:25.110Z,33.52
2022-12-01T16:50:28.284Z,33.77
2022-12-01T16:53:33.111Z,34.11
2022-12-01T16:56:36.229Z,34.77
2022-12-01T16:59:39.404Z,35.91
2022-12-01T17:02:42.487Z,36.40
2022-12-01T17:05:45.692Z,37.24
2022-12-01T17:08:50.268Z,37.83
2022-12-01T17:11:53.510Z,37.40
2022-12-01T17:14:56.744Z,37.80
2022-12-01T17:17:59.849Z,37.48
2022-12-01T17:21:05.240Z,37.71
2022-12-01T17:24:09.958Z,37.44
2022-12-01T17:27:13.124Z,37.39
2022-12-01T17:30:16.388Z,37.59
2022-12-01T17:33:19.625Z,37.44
2022-12-01T17:36:22.687Z,37.79
2022-12-01T17:39:27.153Z,37.77
2022-12-01T17:42:31.974Z,37.73
2022-12-01T17:45:37.784Z,37.59
2022-12-01T17:48:49.671Z,37.51
2022-12-01T17:51:52.936Z,37.78
2022-12-01T17:54:58.107Z,38.02
2022-12-01T17:58:01.157Z,37.63
2022-12-01T18:01:05.206Z,38.15
2022-12-01T18:04:08.383Z,37.66
2022-12-01T18:07:11.570Z,37.52
2022-12-01T18:10:16.177Z,37.75
2022-12-01T18:13:21.237Z,37.66
2022-12-01T18:16:27.001Z,37.26
2022-12-01T18:19:30.107Z,37.42
2022-12-01T18:22:33.538Z,37.95
2022-12-01T18:25:38.915Z,37.38
2022-12-01T18:28:41.906Z,36.77
2022-12-01T18:31:45.217Z,36.73
2022-12-01T18:34:48.732Z,37.17
2022-12-01T18:37:52.117Z,36.62
2022-12-01T18:40:59.945Z,37.18
2022-12-01T18:44:03.505Z,37.21
2022-12-01T18:47:06.703Z,36.81
2022-12-01T18:50:10.735Z,37.16
2022-12-01T18:53:13.806Z,37.08
2022-12-01T18:56:19.826Z,36.42
2022-12-01T18:59:23.084Z,37.20
2022-12-01T19:02:26.511Z,37.05
2022-12-01T19:05:30.745Z,37.00
2022-12-01T19:08:33.862Z,36.61
2022-12-01T19:11:40.492Z,36.31
2022-12-01T19:14:43.697Z,36.76
2022-12-01T19:17:46.817Z,36.55
2022-12-01T19:20:50.163Z,36.18
2022-12-01T19:23:54.239Z,35.78
2022-12-01T19:26:58.719Z,35.60
2022-12-01T19:30:01.746Z,35.61
2022-12-01T19:33:04.865Z,35.77
2022-12-01T19:36:10.130Z,36.06
2022-12-01T19:39:13.128Z,36.22
2022-12-01T19:42:18.289Z,35.75
2022-12-01T19:45:21.495Z,36.19
2022-12-01T19:48:24.677Z,36.04
2022-12-01T19:51:30.529Z,35.58
2022-12-01T19:54:35.433Z,35.61
2022-12-01T19:57:39.934Z,36.17
2022-12-01T20:00:42.996Z,35.76
2022-12-01T20:03:47.242Z,35.78
2022-12-01T20:06:51.578Z,35.95
2022-12-01T20:09:54.799Z,35.49
2022-12-01T20:12:59.429Z,35.53
2022-12-01T20:16:04.274Z,35.84
2022-12-01T20:19:07.605Z,35.58
2022-12-01T20:22:11.082Z,36.02
2022-12-01T20:25:14.350Z,35.60
2022-12-01T20:28:18.820Z,35.91
2022-12-01T20:31:24.034Z,35.56
2022-12-01T20:34:29.976Z,35.82
2022-12-01T20:37:33.137Z,35.89
2022-12-01T20:40:36.162Z,35.65
2022-12-01T20:43:40.823Z,36.02
2022-12-01T20:46:45.864Z,35.91
2022-12-01T20:49:49.898Z,35.49
2022-12-01T20:52:55.117Z,35.89
2022-12-01T20:55:58.265Z,36.08
2022-12-01T20:59:02.772Z,36.09
2022-12-01T21:02:06.328Z,35.64
2022-12-01T21:05:09.649Z,35.62
2022-12-01T21:08:14.966Z,36.05
2022-12-01T21:11:40.359Z,35.70
2022-12-01T21:14:48.564Z,36.27
2022-12-01T21:17:57.751Z,35.78
2022-12-01T21:21:08.000Z,36.15
2022-12-01T21:24:14.771Z,36.23
2022-12-01T21:27:18.872Z,36.10
2022-12-01T21:30:26.239Z,35.54
2022-12-01T21:33:33.072Z,35.76
2022-12-01T21:36:36.257Z,35.51
2022-12-01T21:39:40.447Z,35.17
2022-12-01T21:42:43.636Z,35.08
2022-12-01T21:45:52.422Z,35.18
2022-12-01T21:48:56.486Z,35.47
2022-12-01T21:52:00.112Z,34.92
2022-12-01T21:55:10.342Z,34.89
2022-12-01T21:58:35.646Z,35.24
2022-12-01T22:01:41.975Z,35.23
2022-12-01T22:04:45.452Z,34.97
2022-12-01T22:07:48.601Z,34.91
2022-12-01T22:10:56.632Z,35.00
2022-12-01T22:14:06.042Z,34.97
2022-12-01T22:17:19.836Z,34.41
2022-12-01T22:20:23.962Z,34.89
2022-12-01T22:23:33.175Z,34.77
2022-12-01T22:26:37.968Z,34.32
2022-12-01T22:29:43.253Z,34.47
2022-12-01T22:32:56.995Z,34.64
2022-12-01T22:36:00.056Z,34.20
2022-12-01T22:39:10.889Z,34.27
2022-12-01T22:42:19.740Z,34.39
2022-12-01T22:45:25.460Z,34.46
2022-12-01T22:48:38.313Z,34.31
2022-12-01T22:51:44.070Z,34.47
2022-12-01T22:54:50.109Z,34.36
2022-12-01T22:57:53.832Z,34.29
2022-12-01T23:00:59.011Z,33.79
2022-12-01T23:04:21.482Z,34.15
2022-12-01T23:07:32.683Z,33.95
2022-12-01T23:10:36.385Z,34.34
2022-12-01T23:13:39.420Z,33.86
2022-12-01T23:16:42.751Z,34.14
2022-12-01T23:19:47.553Z,34.07
2022-12-01T23:22:50.642Z,34.19
2022-12-01T23:25:53.819Z,33.76
2022-12-01T23:28:59.148Z,33.81
2022-12-01T23:32:02.635Z,34.05
2022-12-01T23:35:11.703Z,33.59
2022-12-01T23:38:20.077Z,33.95
2022-12-01T23:41:26.522Z,33.55
2022-12-01T23:44:38.143Z,33.92
2022-12-01T23:47:41.469Z,33.89
2022-12-01T23:50:46.890Z,33.90
2022-12-01T23:53:51.028Z,33.55
2022-12-01T23:56:55.748Z,34.02
